createdAt,value
2022-09-20T00:01:33.745Z,43.90
2022-09-20T00:04:07.537Z,40.89
2022-09-20T00:06:35.986Z,40.16
2022-09-20T00:09:05.312Z,38.85
2022-09-20T00:11:35.145Z,39.29
2022-09-20T00:14:06.198Z,39.49
2022-09-20T00:16:39.181Z,37.83
2022-09-20T00:19:08.227Z,36.87
2022-09-20T00:21:38.029Z,37.59
2022-09-20T00:24:06.341Z,37.32
2022-09-20T00:26:34.756Z,37.46
2022-09-20T00:29:03.397Z,36.48
2022-09-20T00:31:31.535Z,36.77
2022-09-20T00:34:18.178Z,36.76
2022-09-20T00:36:46.129Z,36.62
2022-09-20T00:39:17.480Z,37.53
2022-09-20T00:41:45.729Z,38.93
2022-09-20T00:45:10.712Z,37.26
2022-09-20T00:47:42.698Z,38.85
2022-09-20T00:50:33.540Z,39.17
2022-09-20T00:53:09.747Z,38.98
2022-09-20T00:55:42.539Z,38.76
2022-09-20T00:58:10.570Z,38.44
2022-09-20T01:00:39.618Z,38.10
2022-09-20T01:03:11.099Z,38.39
2022-09-20T01:05:41.095Z,38.77
2022-09-20T01:08:10.816Z,38.08
2022-09-20T01:10:39.241Z,38.47
2022-09-20T01:13:07.330Z,38.78
2022-09-20T01:15:37.390Z,37.88
2022-09-20T01:18:07.848Z,38.31
2022-09-20T01:20:39.110Z,37.01
2022-09-20T01:23:18.879Z,37.87
2022-09-20T01:26:04.872Z,38.32
2022-09-20T01:28:34.021Z,37.21
2022-09-20T01:31:31.457Z,38.38
2022-09-20T01:34:01.270Z,38.21
2022-09-20T01:36:39.886Z,39.21
2022-09-20T01:39:27.039Z,38.50
2022-09-20T01:42:04.636Z,39.17
2022-09-20T01:44:51.071Z,39.74
2022-09-20T01:47:33.718Z,39.32
2022-09-20T01:50:31.578Z,40.26
2022-09-20T01:52:59.296Z,40.17
2022-09-20T01:56:05.308Z,41.31
2022-09-20T01:59:23.067Z,40.64
2022-09-20T02:02:24.226Z,41.45
2022-09-20T02:05:34.181Z,40.37
2022-09-20T02:08:44.251Z,40.50
2022-09-20T02:11:21.727Z,40.63
2022-09-20T02:14:03.726Z,40.48
2022-09-20T02:16:37.273Z,40.88
2022-09-20T02:19:31.428Z,41.00
2022-09-20T02:22:27.040Z,42.20
2022-09-20T02:25:32.641Z,42.73
2022-09-20T02:28:22.205Z,41.97
2022-09-20T02:31:07.254Z,44.16
2022-09-20T02:33:41.238Z,44.37
2022-09-20T02:36:29.655Z,44.59
2022-09-20T02:39:11.214Z,45.43
2022-09-20T02:42:05.543Z,46.18
2022-09-20T02:44:46.463Z,46.31
2022-09-20T02:47:33.186Z,45.64
2022-09-20T02:50:38.997Z,46.47
2022-09-20T02:53:33.943Z,46.24
2022-09-20T02:56:35.536Z,46.67
2022-09-20T02:59:21.927Z,46.57
2022-09-20T03:02:16.249Z,46.65
2022-09-20T03:05:09.793Z,47.11
2022-09-20T03:08:03.256Z,46.89
2022-09-20T03:10:43.660Z,46.52
2022-09-20T03:13:15.468Z,47.20
2022-09-20T03:16:13.069Z,46.55
2022-09-20T03:19:19.680Z,46.91
2022-09-20T03:22:11.311Z,47.32
2022-09-20T03:25:07.889Z,47.48
2022-09-20T03:27:54.478Z,47.60
2022-09-20T03:30:37.901Z,47.36
2022-09-20T03:33:40.989Z,47.04
2022-09-20T03:36:36.457Z,47.13
2022-09-20T03:39:14.446Z,46.87
2022-09-20T03:41:53.681Z,46.79
2022-09-20T03:45:01.004Z,47.85
2022-09-20T03:47:52.627Z,48.61
2022-09-20T03:50:50.210Z,48.38
2022-09-20T03:53:33.140Z,48.95
2022-09-20T03:56:20.948Z,48.39
2022-09-20T03:59:11.613Z,47.67
2022-09-20T04:01:42.410Z,47.59
2022-09-20T04:04:41.063Z,46.38
2022-09-20T04:07:45.688Z,46.81
2022-09-20T04:10:32.543Z,45.49
2022-09-20T04:13:12.559Z,44.39
2022-09-20T04:15:58.596Z,44.99
2022-09-20T04:18:35.195Z,44.02
2022-09-20T04:21:17.449Z,44.07
2022-09-20T04:23:54.440Z,42.79
2022-09-20T04:26:36.437Z,43.57
2022-09-20T04:29:39.844Z,43.52
2022-09-20T04:32:16.865Z,44.14
2022-09-20T04:35:10.724Z,45.48
2022-09-20T04:37:39.838Z,45.05
2022-09-20T04:40:38.474Z,45.25
2022-09-20T04:43:57.997Z,46.25
2022-09-20T04:46:56.420Z,44.93
2022-09-20T04:50:15.553Z,45.14
2022-09-20T04:53:05.441Z,44.42
2022-09-20T04:55:56.259Z,44.83
2022-09-20T04:58:40.739Z,44.39
2022-09-20T05:01:16.692Z,43.96
2022-09-20T05:03:53.744Z,44.45
2022-09-20T05:06:55.918Z,43.56
2022-09-20T05:10:01.300Z,43.51
2022-09-20T05:12:52.336Z,43.88
2022-09-20T05:15:51.020Z,43.54
2022-09-20T05:18:55.391Z,43.19
2022-09-20T05:21:39.877Z,43.17
2022-09-20T05:24:25.821Z,43.01
2022-09-20T05:27:19.158Z,43.40
2022-09-20T05:30:04.452Z,43.73
2022-09-20T05:32:49.000Z,43.61
2022-09-20T05:35:32.911Z,43.83
2022-09-20T05:38:11.746Z,43.69
2022-09-20T05:41:04.378Z,44.02
2022-09-20T05:43:35.615Z,44.48
2022-09-20T05:46:39.230Z,44.31
2022-09-20T05:49:41.293Z,43.89
2022-09-20T05:52:21.407Z,43.73
2022-09-20T05:55:38.863Z,43.57
2022-09-20T05:58:44.050Z,43.65
2022-09-20T06:01:17.846Z,42.82
2022-09-20T06:03:55.913Z,43.05
2022-09-20T06:06:50.290Z,42.66
2022-09-20T06:09:35.497Z,43.29
2022-09-20T06:12:31.401Z,42.39
2022-09-20T06:15:21.722Z,42.64
2022-09-20T06:18:23.953Z,41.92
2022-09-20T06:21:24.993Z,41.76
2022-09-20T06:23:59.071Z,41.56
2022-09-20T06:26:34.067Z,41.53
2022-09-20T06:29:07.327Z,41.63
2022-09-20T06:31:35.297Z,41.19
2022-09-20T06:34:10.948Z,41.35
2022-09-20T06:36:59.690Z,41.32
2022-09-20T06:40:01.457Z,41.23
2022-09-20T06:42:29.772Z,40.50
2022-09-20T06:44:57.628Z,40.47
2022-09-20T06:47:27.167Z,41.25
2022-09-20T06:49:55.754Z,40.62
2022-09-20T06:52:23.666Z,40.92
2022-09-20T06:54:55.340Z,40.92
2022-09-20T06:57:37.955Z,40.89
2022-09-20T07:00:10.282Z,39.59
2022-09-20T07:02:38.239Z,39.94
2022-09-20T07:05:07.691Z,40.53
2022-09-20T07:07:35.596Z,40.31
2022-09-20T07:10:03.698Z,39.94
2022-09-20T07:12:34.103Z,40.12
2022-09-20T07:15:02.028Z,39.60
2022-09-20T07:17:29.943Z,40.11
2022-09-20T07:19:57.849Z,39.08
2022-09-20T07:22:27.126Z,39.80
2022-09-20T07:24:55.378Z,39.52
2022-09-20T07:27:26.371Z,39.51
2022-09-20T07:29:56.703Z,38.49
2022-09-20T07:32:24.648Z,38.47
2022-09-20T07:34:52.564Z,38.77
2022-09-20T07:37:20.737Z,37.69
2022-09-20T07:39:48.620Z,38.42
2022-09-20T07:42:16.556Z,38.41
2022-09-20T07:44:44.610Z,38.33
2022-09-20T07:47:14.489Z,38.23
2022-09-20T07:49:42.376Z,37.84
2022-09-20T07:52:11.381Z,38.02
2022-09-20T07:54:40.049Z,38.04
2022-09-20T07:57:08.114Z,38.48
2022-09-20T07:59:36.027Z,38.71
2022-09-20T08:02:04.120Z,38.60
2022-09-20T08:04:32.469Z,38.80
2022-09-20T08:07:01.618Z,39.10
2022-09-20T08:09:29.542Z,38.62
2022-09-20T08:11:57.690Z,38.93
2022-09-20T08:14:26.162Z,38.68
2022-09-20T08:16:56.445Z,38.94
2022-09-20T08:19:24.466Z,38.69
2022-09-20T08:21:54.156Z,39.09
2022-09-20T08:24:22.274Z,38.92
2022-09-20T08:26:50.110Z,38.32
2022-09-20T08:29:17.968Z,39.38
2022-09-20T08:31:46.625Z,38.75
2022-09-20T08:34:15.896Z,38.87
2022-09-20T08:36:46.992Z,39.37
2022-09-20T08:42:19.275Z,40.04
2022-09-20T08:44:58.643Z,39.44
2022-09-20T08:47:35.929Z,39.89
2022-09-20T08:50:10.162Z,40.25
2022-09-20T08:52:40.824Z,40.18
2022-09-20T08:55:27.301Z,39.66
2022-09-20T08:57:58.228Z,39.90
2022-09-20T09:00:30.893Z,39.57
2022-09-20T09:03:04.671Z,40.19
2022-09-20T09:05:47.863Z,40.46
2022-09-20T09:08:17.743Z,40.13
2022-09-20T09:10:52.721Z,38.93
2022-09-20T09:13:34.733Z,39.44
2022-09-20T09:16:10.041Z,39.17
2022-09-20T09:18:41.007Z,39.49
2022-09-20T09:21:17.535Z,39.61
2022-09-20T09:24:09.641Z,39.51
2022-09-20T09:26:43.560Z,39.41
2022-09-20T09:29:18.033Z,39.05
2022-09-20T09:31:48.425Z,39.02
2022-09-20T09:34:35.512Z,38.06
2022-09-20T09:37:03.419Z,37.94
2022-09-20T09:39:33.461Z,39.19
2022-09-20T09:42:21.452Z,39.75
2022-09-20T09:44:50.740Z,39.38
2022-09-20T09:47:29.124Z,39.37
2022-09-20T09:50:02.614Z,39.59
2022-09-20T09:52:33.556Z,39.25
2022-09-20T09:55:05.650Z,38.52
2022-09-20T09:57:56.142Z,38.64
2022-09-20T10:00:27.228Z,38.35
2022-09-20T10:03:01.243Z,38.32
2022-09-20T10:05:32.178Z,38.89
2022-09-20T10:08:11.167Z,38.62
2022-09-20T10:11:07.303Z,37.81
2022-09-20T10:13:41.920Z,37.55
2022-09-20T10:16:21.220Z,37.76
2022-09-20T10:19:07.723Z,36.72
2022-09-20T10:22:00.347Z,36.98
2022-09-20T10:24:48.475Z,36.64
2022-09-20T10:27:27.024Z,37.07
2022-09-20T10:30:03.473Z,37.70
2022-09-20T10:32:43.427Z,38.01
2022-09-20T10:35:19.164Z,37.90
2022-09-20T10:38:05.369Z,37.83
2022-09-20T10:40:54.818Z,37.51
2022-09-20T10:43:49.827Z,37.78
2022-09-20T10:46:32.793Z,36.67
2022-09-20T10:49:25.364Z,36.72
2022-09-20T10:52:11.334Z,36.81
2022-09-20T10:54:56.629Z,36.87
2022-09-20T10:58:01.954Z,35.73
2022-09-20T11:00:50.897Z,36.14
2022-09-20T11:03:37.042Z,35.44
2022-09-20T11:06:43.688Z,35.62
2022-09-20T11:09:18.660Z,36.54
2022-09-20T11:12:10.426Z,36.43
2022-09-20T11:14:55.196Z,35.04
2022-09-20T11:17:32.017Z,37.06
2022-09-20T11:20:21.309Z,37.02
2022-09-20T11:23:10.777Z,36.10
2022-09-20T11:25:51.998Z,37.75
2022-09-20T11:28:40.857Z,37.24
2022-09-20T11:31:18.339Z,37.51
2022-09-20T11:34:20.761Z,37.08
2022-09-20T11:36:53.727Z,37.69
2022-09-20T11:39:24.214Z,37.01
2022-09-20T11:41:55.857Z,36.33
2022-09-20T11:44:26.384Z,36.89
2022-09-20T11:47:07.260Z,36.56
2022-09-20T11:49:43.636Z,36.63
2022-09-20T11:52:33.871Z,36.96
2022-09-20T11:55:26.637Z,36.29
2022-09-20T11:58:11.514Z,36.50
2022-09-20T12:00:43.095Z,36.64
2022-09-20T12:03:32.648Z,36.80
2022-09-20T12:06:04.382Z,35.77
2022-09-20T12:08:41.439Z,36.21
2022-09-20T12:11:14.049Z,36.70
2022-09-20T12:13:52.701Z,35.64
2022-09-20T12:16:42.404Z,36.28
2022-09-20T12:19:14.156Z,35.19
2022-09-20T12:22:00.455Z,36.53
2022-09-20T12:24:36.932Z,35.86
2022-09-20T12:27:30.601Z,35.81
2022-09-20T12:30:20.304Z,36.49
2022-09-20T12:32:48.960Z,36.11
2022-09-20T12:35:45.505Z,36.06
2022-09-20T12:38:34.579Z,35.40
2022-09-20T12:41:04.258Z,35.82
2022-09-20T12:43:34.530Z,34.62
2022-09-20T12:46:06.341Z,34.47
2022-09-20T12:48:38.351Z,35.52
2022-09-20T12:51:51.819Z,36.38
2022-09-20T12:54:20.939Z,36.87
2022-09-20T12:56:52.213Z,36.74
2022-09-20T12:59:27.840Z,36.01
2022-09-20T13:01:56.615Z,36.10
2022-09-20T13:04:54.678Z,35.68
2022-09-20T13:07:44.669Z,34.82
2022-09-20T13:10:30.811Z,35.08
2022-09-20T13:13:12.806Z,35.63
2022-09-20T13:15:46.094Z,36.28
2022-09-20T13:18:15.688Z,37.63
2022-09-20T13:20:45.689Z,37.98
2022-09-20T13:23:26.343Z,38.10
2022-09-20T13:25:59.450Z,37.45
2022-09-20T13:28:43.191Z,37.26
2022-09-20T13:31:29.140Z,37.49
2022-09-20T13:34:19.397Z,38.03
2022-09-20T13:36:52.929Z,37.28
2022-09-20T13:39:36.339Z,38.26
2022-09-20T13:42:19.903Z,38.28
2022-09-20T13:44:49.267Z,38.92
2022-09-20T13:47:25.846Z,40.04
2022-09-20T13:49:59.336Z,39.03
2022-09-20T13:52:30.619Z,37.94
2022-09-20T13:54:58.773Z,38.97
2022-09-20T13:57:29.836Z,38.88
2022-09-20T13:59:58.994Z,37.56
2022-09-20T14:02:32.065Z,37.71
2022-09-20T14:05:04.318Z,37.70
2022-09-20T14:07:33.874Z,37.66
2022-09-20T14:10:01.903Z,38.14
2022-09-20T14:12:30.100Z,38.69
2022-09-20T14:14:59.383Z,38.78
2022-09-20T14:17:34.117Z,39.48
2022-09-20T14:20:02.761Z,38.43
2022-09-20T14:22:30.868Z,37.79
2022-09-20T14:25:25.607Z,37.34
2022-09-20T14:28:06.473Z,36.99
2022-09-20T14:30:37.566Z,37.07
2022-09-20T14:33:12.492Z,37.12
2022-09-20T14:35:51.463Z,37.38
2022-09-20T14:38:24.851Z,37.20
2022-09-20T14:40:55.479Z,37.25
2022-09-20T14:43:26.432Z,37.26
2022-09-20T14:45:57.120Z,37.08
2022-09-20T14:48:24.942Z,37.32
2022-09-20T14:51:27.739Z,37.80
2022-09-20T14:54:04.508Z,37.32
2022-09-20T14:56:39.825Z,38.06
2022-09-20T14:59:30.966Z,38.23
2022-09-20T15:02:04.031Z,37.72
2022-09-20T15:04:35.731Z,37.65
2022-09-20T15:07:11.070Z,37.06
2022-09-20T15:09:39.175Z,37.55
2022-09-20T15:12:11.197Z,36.83
2022-09-20T15:14:41.530Z,37.04
2022-09-20T15:17:18.718Z,37.37
2022-09-20T15:19:47.990Z,37.63
2022-09-20T15:22:16.467Z,38.34
2022-09-20T15:24:44.936Z,38.66
2022-09-20T15:27:14.055Z,37.46
2022-09-20T15:29:41.966Z,37.44
2022-09-20T15:32:11.269Z,37.50
2022-09-20T15:34:39.241Z,38.33
2022-09-20T15:37:07.139Z,39.07
2022-09-20T15:39:35.095Z,39.30
2022-09-20T15:51:40.508Z,38.36
2022-09-20T15:54:12.375Z,38.20
2022-09-20T15:56:40.873Z,38.70
2022-09-20T15:59:10.907Z,38.51
2022-09-20T16:01:44.490Z,38.33
2022-09-20T16:04:14.600Z,38.71
2022-09-20T16:06:44.159Z,38.46
2022-09-20T16:09:12.503Z,38.37
2022-09-20T16:11:40.312Z,39.04
2022-09-20T16:14:08.200Z,39.24
2022-09-20T16:16:40.425Z,39.38
2022-09-20T16:19:17.502Z,39.32
2022-09-20T16:21:58.924Z,39.20
2022-09-20T16:24:29.653Z,39.30
2022-09-20T16:26:59.239Z,38.96
2022-09-20T16:29:29.484Z,38.78
2022-09-20T16:31:58.668Z,38.67
2022-09-20T16:34:36.474Z,39.69
2022-09-20T16:37:12.084Z,39.67
2022-09-20T16:39:43.232Z,39.74
2022-09-20T16:42:13.424Z,39.89
2022-09-20T16:44:45.407Z,40.14
2022-09-20T16:47:22.293Z,40.00
2022-09-20T16:49:50.900Z,39.94
2022-09-20T16:52:18.971Z,40.40
2022-09-20T16:54:46.802Z,40.92
2022-09-20T16:57:15.754Z,40.68
2022-09-20T16:59:43.611Z,40.90
2022-09-20T17:02:12.650Z,40.80
2022-09-20T17:04:40.574Z,41.87
2022-09-20T17:07:09.063Z,41.64
2022-09-20T17:09:39.048Z,41.08
2022-09-20T17:12:09.626Z,41.55
2022-09-20T17:14:37.592Z,41.92
2022-09-20T17:17:05.550Z,41.84
2022-09-20T17:19:34.096Z,42.21
2022-09-20T17:22:02.173Z,41.33
2022-09-20T17:24:30.388Z,41.45
2022-09-20T17:26:59.205Z,41.76
2022-09-20T17:29:27.846Z,41.67
2022-09-20T17:32:00.410Z,41.46
2022-09-20T17:34:29.600Z,41.82
2022-09-20T17:36:57.589Z,41.76
2022-09-20T17:39:25.480Z,41.88
2022-09-20T17:41:53.313Z,43.80
2022-09-20T17:44:21.189Z,44.86
2022-09-20T17:46:50.497Z,46.01
2022-09-20T17:49:22.056Z,46.34
2022-09-20T17:51:52.528Z,47.06
2022-09-20T17:54:21.198Z,46.90
2022-09-20T17:56:51.539Z,46.99
2022-09-20T17:59:20.897Z,47.20
2022-09-20T18:01:51.362Z,46.86
2022-09-20T18:04:21.115Z,47.56
2022-09-20T18:06:51.326Z,47.34
2022-09-20T18:09:21.653Z,47.65
2022-09-20T18:11:52.981Z,47.63
2022-09-20T18:14:23.452Z,47.66
2022-09-20T18:16:52.846Z,48.19
2022-09-20T18:19:22.972Z,47.88
2022-09-20T18:21:51.335Z,47.77
2022-09-20T18:24:19.308Z,47.72
2022-09-20T18:26:47.320Z,47.65
2022-09-20T18:29:18.333Z,47.59
2022-09-20T18:31:52.324Z,47.28
2022-09-20T18:34:25.575Z,47.97
2022-09-20T18:36:56.684Z,47.89
2022-09-20T18:39:27.994Z,47.40
2022-09-20T18:41:56.265Z,47.54
2022-09-20T18:44:24.590Z,47.66
2022-09-20T18:46:54.375Z,49.22
2022-09-20T18:49:22.639Z,49.83
2022-09-20T18:51:50.438Z,50.82
2022-09-20T18:54:19.127Z,50.69
2022-09-20T18:56:49.093Z,51.72
2022-09-20T18:59:18.203Z,52.00
2022-09-20T19:02:19.005Z,52.52
2022-09-20T19:05:28.638Z,52.80
2022-09-20T19:08:08.503Z,53.21
2022-09-20T19:10:46.656Z,53.72
2022-09-20T19:13:17.392Z,53.06
2022-09-20T19:16:21.897Z,53.46
2022-09-20T19:19:15.214Z,53.66
2022-09-20T19:22:08.828Z,54.12
2022-09-20T19:25:01.996Z,54.12
2022-09-20T19:27:30.935Z,53.91
2022-09-20T19:29:59.143Z,54.53
2022-09-20T19:32:30.029Z,54.40
2022-09-20T19:35:02.095Z,54.08
2022-09-20T19:37:58.399Z,54.29
2022-09-20T19:40:47.498Z,54.70
2022-09-20T19:43:27.532Z,53.89
2022-09-20T19:46:29.483Z,54.29
2022-09-20T19:49:25.369Z,54.47
2022-09-20T19:51:56.018Z,54.55
2022-09-20T19:54:24.887Z,54.85
2022-09-20T19:56:56.661Z,54.97
2022-09-20T19:59:26.780Z,54.94
2022-09-20T20:01:56.573Z,54.65
2022-09-20T20:04:24.787Z,55.03
2022-09-20T20:07:05.194Z,55.32
2022-09-20T20:10:08.772Z,55.34
2022-09-20T20:12:36.963Z,55.19
2022-09-20T20:15:26.245Z,55.52
2022-09-20T20:18:11.353Z,55.70
2022-09-20T20:20:50.391Z,55.15
2022-09-20T20:23:24.341Z,55.00
2022-09-20T20:26:10.593Z,55.33
2022-09-20T20:28:38.767Z,54.93
2022-09-20T20:31:07.317Z,55.20
2022-09-20T20:33:35.874Z,56.10
2022-09-20T20:36:03.971Z,55.36
2022-09-20T20:38:37.272Z,55.00
2022-09-20T20:41:08.770Z,54.55
2022-09-20T20:43:38.768Z,54.73
2022-09-20T20:46:09.661Z,54.50
2022-09-20T20:48:37.840Z,54.70
2022-09-20T20:51:17.612Z,54.75
2022-09-20T20:53:51.590Z,54.65
2022-09-20T20:56:25.972Z,54.81
2022-09-20T20:58:54.463Z,54.89
2022-09-20T21:01:26.142Z,54.26
2022-09-20T21:03:55.323Z,54.21
2022-09-20T21:06:25.459Z,54.44
2022-09-20T21:08:53.846Z,54.20
2022-09-20T21:11:24.204Z,55.39
2022-09-20T21:13:55.609Z,55.95
2022-09-20T21:16:35.299Z,55.07
2022-09-20T21:19:05.883Z,54.81
2022-09-20T21:21:39.059Z,54.96
2022-09-20T21:24:08.666Z,54.86
2022-09-20T21:26:38.196Z,55.10
2022-09-20T21:29:08.608Z,55.17
2022-09-20T21:31:39.975Z,54.73
2022-09-20T21:34:10.253Z,55.05
2022-09-20T21:36:42.253Z,54.44
2022-09-20T21:39:10.721Z,55.51
2022-09-20T21:41:39.586Z,55.25
2022-09-20T21:44:09.917Z,55.12
2022-09-20T21:46:42.471Z,54.63
2022-09-20T21:49:12.231Z,55.00
2022-09-20T21:51:45.331Z,54.91
2022-09-20T21:54:13.297Z,54.90
2022-09-20T21:56:41.573Z,54.68
2022-09-20T21:59:09.668Z,55.04
2022-09-20T22:01:40.429Z,55.80
2022-09-20T22:04:12.376Z,56.34
2022-09-20T22:06:44.553Z,56.63
2022-09-20T22:09:14.893Z,56.27
2022-09-20T22:11:47.963Z,55.47
2022-09-20T22:14:18.639Z,55.64
2022-09-20T22:16:47.697Z,57.35
2022-09-20T22:19:17.412Z,56.44
2022-09-20T22:21:48.224Z,57.42
2022-09-20T22:24:17.444Z,57.14
2022-09-20T22:26:50.300Z,57.44
2022-09-20T22:29:18.659Z,57.27
2022-09-20T22:31:49.804Z,57.64
2022-09-20T22:34:20.444Z,59.06
2022-09-20T22:37:02.532Z,57.54
2022-09-20T22:39:37.554Z,58.83
2022-09-20T22:42:05.619Z,57.24
2022-09-20T22:44:34.032Z,57.66
2022-09-20T22:47:01.975Z,58.40
2022-09-20T22:49:29.812Z,59.84
2022-09-20T22:51:57.633Z,57.50
2022-09-20T22:54:25.492Z,57.43
2022-09-20T22:56:53.350Z,58.69
2022-09-20T22:59:21.127Z,57.17
2022-09-20T23:01:49.133Z,57.13
2022-09-20T23:04:23.487Z,56.67
2022-09-20T23:06:55.140Z,57.04
2022-09-20T23:09:28.348Z,56.20
2022-09-20T23:11:56.684Z,56.56
2022-09-20T23:14:24.493Z,56.77
2022-09-20T23:16:53.095Z,56.48
2022-09-20T23:19:20.985Z,56.55
2022-09-20T23:21:48.825Z,56.99
2022-09-20T23:24:16.842Z,56.04
2022-09-20T23:26:45.154Z,55.77
2022-09-20T23:29:16.960Z,55.38
2022-09-20T23:31:47.404Z,55.04
2022-09-20T23:34:19.668Z,55.60
2022-09-20T23:36:47.672Z,56.28
2022-09-20T23:39:16.078Z,56.42
2022-09-20T23:41:48.369Z,57.04
2022-09-20T23:44:17.991Z,58.03
2022-09-20T23:46:45.889Z,56.92
2022-09-20T23:49:13.843Z,56.71
2022-09-20T23:51:41.718Z,55.98
2022-09-20T23:54:09.636Z,56.54
2022-09-20T23:56:37.468Z,56.35
2022-09-20T23:59:05.304Z,57.57
